createdAt,value
2018-05-07T00:00:27.028Z,1016.58
2018-05-07T00:01:27.123Z,1016.60
2018-05-07T00:02:27.068Z,1016.59
2018-05-07T00:03:27.039Z,1016.61
2018-05-07T00:04:27.109Z,1016.60
2018-05-07T00:05:27.043Z,1016.59
2018-05-07T00:06:27.053Z,1016.60
2018-05-07T00:07:27.056Z,1016.61
2018-05-07T00:08:27.048Z,1016.59
2018-05-07T00:09:27.064Z,1016.60
2018-05-07T00:10:27.058Z,1016.58
2018-05-07T00:11:27.071Z,1016.60
2018-05-07T00:12:27.090Z,1016.60
2018-05-07T00:13:27.072Z,1016.57
2018-05-07T00:14:27.099Z,1016.54
2018-05-07T00:15:27.087Z,1016.50
2018-05-07T00:16:27.244Z,1016.53
2018-05-07T00:17:27.094Z,1016.52
2018-05-07T00:18:27.123Z,1016.53
2018-05-07T00:19:27.101Z,1016.49
2018-05-07T00:20:27.107Z,1016.49
2018-05-07T00:21:27.106Z,1016.50
2018-05-07T00:22:27.137Z,1016.48
2018-05-07T00:23:27.119Z,1016.49
2018-05-07T00:24:27.128Z,1016.47
2018-05-07T00:25:27.120Z,1016.50
2018-05-07T00:26:27.131Z,1016.47
2018-05-07T00:27:27.128Z,1016.47
2018-05-07T00:28:27.140Z,1016.44
2018-05-07T00:29:27.143Z,1016.45
2018-05-07T00:30:27.141Z,1016.48
2018-05-07T00:31:27.149Z,1016.46
2018-05-07T00:32:27.149Z,1016.48
2018-05-07T00:33:27.160Z,1016.51
2018-05-07T00:34:27.163Z,1016.51
2018-05-07T00:35:27.181Z,1016.50
2018-05-07T00:36:27.166Z,1016.51
2018-05-07T00:37:27.173Z,1016.49
2018-05-07T00:38:27.173Z,1016.48
2018-05-07T00:39:27.184Z,1016.45
2018-05-07T00:40:27.178Z,1016.44
2018-05-07T00:41:27.189Z,1016.47
2018-05-07T00:42:27.191Z,1016.43
2018-05-07T00:43:27.199Z,1016.39
2018-05-07T00:44:27.194Z,1016.42
2018-05-07T00:45:27.198Z,1016.47
2018-05-07T00:46:27.207Z,1016.45
2018-05-07T00:47:27.208Z,1016.44
2018-05-07T00:48:27.219Z,1016.41
2018-05-07T00:49:27.213Z,1016.44
2018-05-07T00:50:27.274Z,1016.46
2018-05-07T00:51:27.223Z,1016.39
2018-05-07T00:52:27.230Z,1016.43
2018-05-07T00:53:27.231Z,1016.46
2018-05-07T00:54:27.241Z,1016.49
2018-05-07T00:55:27.254Z,1016.47
2018-05-07T00:56:27.256Z,1016.47
2018-05-07T00:57:27.241Z,1016.45
2018-05-07T00:58:27.255Z,1016.43
2018-05-07T00:59:27.253Z,1016.48
2018-05-07T01:00:27.264Z,1016.45
2018-05-07T01:01:27.274Z,1016.46
2018-05-07T01:02:27.266Z,1016.47
2018-05-07T01:03:27.270Z,1016.45
2018-05-07T01:04:27.272Z,1016.47
2018-05-07T01:05:27.281Z,1016.42
2018-05-07T01:06:27.283Z,1016.43
2018-05-07T01:07:27.290Z,1016.41
2018-05-07T01:08:27.296Z,1016.43
2018-05-07T01:09:27.288Z,1016.44
2018-05-07T01:10:27.301Z,1016.41
2018-05-07T01:11:27.308Z,1016.44
2018-05-07T01:12:27.311Z,1016.44
2018-05-07T01:13:27.308Z,1016.42
2018-05-07T01:14:27.308Z,1016.47
2018-05-07T01:15:27.319Z,1016.47
2018-05-07T01:16:27.319Z,1016.49
2018-05-07T01:17:27.329Z,1016.46
2018-05-07T01:18:27.328Z,1016.49
2018-05-07T01:19:27.339Z,1016.50
2018-05-07T01:20:27.331Z,1016.52
2018-05-07T01:21:27.338Z,1016.50
2018-05-07T01:22:27.340Z,1016.50
2018-05-07T01:23:27.341Z,1016.46
2018-05-07T01:24:27.354Z,1016.50
2018-05-07T01:25:27.354Z,1016.48
2018-05-07T01:26:27.364Z,1016.50
2018-05-07T01:27:27.358Z,1016.47
2018-05-07T01:28:27.365Z,1016.48
2018-05-07T01:29:27.366Z,1016.44
2018-05-07T01:30:27.373Z,1016.49
2018-05-07T01:31:27.374Z,1016.48
2018-05-07T01:32:27.383Z,1016.46
2018-05-07T01:33:27.380Z,1016.47
2018-05-07T01:34:27.388Z,1016.46
2018-05-07T01:35:27.412Z,1016.47
2018-05-07T01:36:27.396Z,1016.50
2018-05-07T01:37:27.389Z,1016.49
2018-05-07T01:38:27.403Z,1016.48
2018-05-07T01:39:27.399Z,1016.46
2018-05-07T01:40:27.407Z,1016.51
2018-05-07T01:41:27.408Z,1016.49
2018-05-07T01:42:27.410Z,1016.49
2018-05-07T01:43:27.423Z,1016.51
2018-05-07T01:44:27.987Z,1016.50
2018-05-07T01:45:27.418Z,1016.51
2018-05-07T01:46:27.426Z,1016.54
2018-05-07T01:47:27.433Z,1016.56
2018-05-07T01:48:27.440Z,1016.57
2018-05-07T01:49:27.433Z,1016.53
2018-05-07T01:50:27.440Z,1016.53
2018-05-07T01:51:27.450Z,1016.51
2018-05-07T01:52:27.451Z,1016.53
2018-05-07T01:53:27.451Z,1016.53
2018-05-07T01:54:27.455Z,1016.53
2018-05-07T01:55:27.468Z,1016.55
2018-05-07T01:56:27.466Z,1016.53
2018-05-07T01:57:27.470Z,1016.50
2018-05-07T01:58:27.476Z,1016.52
2018-05-07T01:59:27.469Z,1016.52
2018-05-07T02:00:27.480Z,1016.47
2018-05-07T02:01:27.481Z,1016.45
2018-05-07T02:02:27.487Z,1016.46
2018-05-07T02:03:27.494Z,1016.47
2018-05-07T02:04:27.487Z,1016.47
2018-05-07T02:05:27.493Z,1016.43
2018-05-07T02:06:27.496Z,1016.42
2018-05-07T02:07:27.507Z,1016.40
2018-05-07T02:08:27.509Z,1016.43
2018-05-07T02:09:27.505Z,1016.41
2018-05-07T02:10:27.510Z,1016.43
2018-05-07T02:11:27.518Z,1016.43
2018-05-07T02:12:27.517Z,1016.46
2018-05-07T02:13:27.527Z,1016.45
2018-05-07T02:14:27.521Z,1016.44
2018-05-07T02:15:27.534Z,1016.43
2018-05-07T02:16:27.538Z,1016.47
2018-05-07T02:17:27.531Z,1016.42
2018-05-07T02:18:27.543Z,1016.44
2018-05-07T02:19:27.538Z,1016.46
2018-05-07T02:20:27.546Z,1016.44
2018-05-07T02:21:27.556Z,1016.42
2018-05-07T02:22:27.560Z,1016.42
2018-05-07T02:23:27.557Z,1016.41
2018-05-07T02:24:27.578Z,1016.45
2018-05-07T02:25:27.566Z,1016.45
2018-05-07T02:26:27.567Z,1016.46
2018-05-07T02:27:27.589Z,1016.47
2018-05-07T02:28:27.576Z,1016.44
2018-05-07T02:29:27.578Z,1016.42
2018-05-07T02:30:27.583Z,1016.43
2018-05-07T02:31:27.667Z,1016.44
2018-05-07T02:32:27.584Z,1016.43
2018-05-07T02:33:27.597Z,1016.43
2018-05-07T02:34:27.590Z,1016.43
2018-05-07T02:35:27.601Z,1016.41
2018-05-07T02:36:27.605Z,1016.40
2018-05-07T02:37:27.604Z,1016.40
2018-05-07T02:38:27.609Z,1016.39
2018-05-07T02:39:27.616Z,1016.40
2018-05-07T02:40:27.618Z,1016.39
2018-05-07T02:41:27.613Z,1016.39
2018-05-07T02:42:27.626Z,1016.36
2018-05-07T02:43:27.632Z,1016.32
2018-05-07T02:44:27.631Z,1016.33
2018-05-07T02:45:27.629Z,1016.32
2018-05-07T02:46:27.631Z,1016.30
2018-05-07T02:47:27.634Z,1016.33
2018-05-07T02:48:27.650Z,1016.35
2018-05-07T02:49:27.649Z,1016.30
2018-05-07T02:50:27.652Z,1016.32
2018-05-07T02:51:27.646Z,1016.30
2018-05-07T02:52:27.665Z,1016.29
2018-05-07T02:53:27.668Z,1016.27
2018-05-07T02:54:27.664Z,1016.19
2018-05-07T02:55:27.665Z,1016.22
2018-05-07T02:56:27.670Z,1016.19
2018-05-07T02:57:27.670Z,1016.16
2018-05-07T02:58:27.675Z,1016.17
2018-05-07T02:59:27.682Z,1016.16
2018-05-07T03:00:27.686Z,1016.14
2018-05-07T03:01:27.680Z,1016.15
2018-05-07T03:02:27.687Z,1016.14
2018-05-07T03:03:27.695Z,1016.16
2018-05-07T03:04:27.690Z,1016.11
2018-05-07T03:05:27.699Z,1016.12
2018-05-07T03:06:27.701Z,1016.15
2018-05-07T03:07:27.701Z,1016.11
2018-05-07T03:08:27.702Z,1016.09
2018-05-07T03:09:27.711Z,1016.08
2018-05-07T03:10:27.712Z,1016.00
2018-05-07T03:11:27.722Z,1016.01
2018-05-07T03:12:27.722Z,1016.05
2018-05-07T03:13:27.715Z,1016.04
2018-05-07T03:14:27.721Z,1016.05
2018-05-07T03:15:27.729Z,1016.04
2018-05-07T03:16:27.737Z,1016.02
2018-05-07T03:17:27.744Z,1016.03
2018-05-07T03:18:27.743Z,1016.01
2018-05-07T03:19:27.744Z,1015.99
2018-05-07T03:20:27.757Z,1016.03
2018-05-07T03:21:27.745Z,1016.02
2018-05-07T03:22:27.753Z,1016.04
2018-05-07T03:23:27.774Z,1016.00
2018-05-07T03:24:27.752Z,1016.02
2018-05-07T03:25:27.778Z,1015.99
2018-05-07T03:26:27.769Z,1015.99
2018-05-07T03:27:27.764Z,1015.96
2018-05-07T03:28:27.770Z,1015.99
2018-05-07T03:29:27.772Z,1015.94
2018-05-07T03:30:27.778Z,1015.93
2018-05-07T03:31:27.778Z,1015.92
2018-05-07T03:32:27.784Z,1015.93
2018-05-07T03:33:27.779Z,1015.94
2018-05-07T03:34:27.790Z,1015.94
2018-05-07T03:35:27.783Z,1015.91
2018-05-07T03:36:27.790Z,1015.93
2018-05-07T03:37:27.795Z,1015.98
2018-05-07T03:38:27.808Z,1015.95
2018-05-07T03:39:27.805Z,1015.95
2018-05-07T03:40:27.866Z,1015.96
2018-05-07T03:41:27.811Z,1015.99
2018-05-07T03:42:27.805Z,1015.98
2018-05-07T03:43:27.815Z,1016.00
2018-05-07T03:44:27.817Z,1016.03
2018-05-07T03:45:27.830Z,1016.02
2018-05-07T03:46:27.830Z,1016.02
2018-05-07T03:47:27.825Z,1016.02
2018-05-07T03:48:27.840Z,1016.05
2018-05-07T03:49:27.844Z,1015.99
2018-05-07T03:50:27.836Z,1016.00
2018-05-07T03:51:27.845Z,1016.01
2018-05-07T03:52:27.855Z,1016.04
2018-05-07T03:53:27.840Z,1015.96
2018-05-07T03:54:27.848Z,1015.99
2018-05-07T03:55:27.857Z,1015.96
2018-05-07T03:56:27.859Z,1015.97
2018-05-07T03:57:27.856Z,1015.95
2018-05-07T03:58:27.861Z,1015.95
2018-05-07T03:59:27.868Z,1015.96
2018-05-07T04:00:27.861Z,1015.92
2018-05-07T04:01:27.870Z,1015.94
2018-05-07T04:02:27.865Z,1015.93
2018-05-07T04:03:27.871Z,1015.92
2018-05-07T04:04:27.881Z,1015.92
2018-05-07T04:05:27.874Z,1015.90
2018-05-07T04:06:27.891Z,1015.92
2018-05-07T04:07:27.885Z,1015.90
2018-05-07T04:08:27.900Z,1015.94
2018-05-07T04:09:27.893Z,1015.92
2018-05-07T04:10:27.914Z,1015.88
2018-05-07T04:11:27.896Z,1015.90
2018-05-07T04:12:27.902Z,1015.90
2018-05-07T04:13:27.901Z,1015.90
2018-05-07T04:14:27.908Z,1015.88
2018-05-07T04:15:27.920Z,1015.89
2018-05-07T04:16:27.920Z,1015.84
2018-05-07T04:17:27.940Z,1015.87
2018-05-07T04:18:27.927Z,1015.85
2018-05-07T04:19:27.923Z,1015.86
2018-05-07T04:20:27.931Z,1015.85
2018-05-07T04:21:27.931Z,1015.86
2018-05-07T04:22:27.928Z,1015.87
2018-05-07T04:23:27.959Z,1015.84
2018-05-07T04:24:27.935Z,1015.83
2018-05-07T04:25:27.943Z,1015.82
2018-05-07T04:26:27.941Z,1015.80
2018-05-07T04:27:27.948Z,1015.80
2018-05-07T04:28:27.946Z,1015.81
2018-05-07T04:29:27.955Z,1015.82
2018-05-07T04:30:27.964Z,1015.86
2018-05-07T04:31:28.523Z,1015.83
2018-05-07T04:32:27.963Z,1015.80
2018-05-07T04:33:27.961Z,1015.84
2018-05-07T04:34:27.963Z,1015.80
2018-05-07T04:35:27.976Z,1015.83
2018-05-07T04:36:27.975Z,1015.82
2018-05-07T04:37:27.974Z,1015.84
2018-05-07T04:38:27.979Z,1015.82
2018-05-07T04:39:27.985Z,1015.83
2018-05-07T04:40:27.997Z,1015.81
2018-05-07T04:41:27.993Z,1015.81
2018-05-07T04:42:27.987Z,1015.86
2018-05-07T04:43:28.003Z,1015.83
2018-05-07T04:44:27.998Z,1015.87
2018-05-07T04:45:28.004Z,1015.84
2018-05-07T04:46:28.005Z,1015.86
2018-05-07T04:47:28.013Z,1015.87
2018-05-07T04:48:28.012Z,1015.84
2018-05-07T04:49:28.015Z,1015.88
2018-05-07T04:50:28.022Z,1015.80
2018-05-07T04:51:28.531Z,1015.81
2018-05-07T04:52:28.019Z,1015.80
2018-05-07T04:53:28.029Z,1015.82
2018-05-07T04:54:28.027Z,1015.77
2018-05-07T04:55:28.037Z,1015.80
2018-05-07T04:56:28.034Z,1015.78
2018-05-07T04:57:28.040Z,1015.79
2018-05-07T04:58:28.038Z,1015.80
2018-05-07T04:59:28.047Z,1015.78
2018-05-07T05:00:28.058Z,1015.84
2018-05-07T05:01:28.056Z,1015.79
2018-05-07T05:02:28.068Z,1015.81
2018-05-07T05:03:28.051Z,1015.81
2018-05-07T05:04:28.056Z,1015.83
2018-05-07T05:05:28.066Z,1015.85
2018-05-07T05:06:28.064Z,1015.87
2018-05-07T05:07:28.071Z,1015.80
2018-05-07T05:08:28.074Z,1015.85
2018-05-07T05:09:28.079Z,1015.88
2018-05-07T05:10:28.076Z,1015.86
2018-05-07T05:11:28.085Z,1015.82
2018-05-07T05:12:28.159Z,1015.86
2018-05-07T05:13:28.096Z,1015.87
2018-05-07T05:14:28.090Z,1015.84
2018-05-07T05:15:28.101Z,1015.88
2018-05-07T05:16:28.145Z,1015.87
2018-05-07T05:17:28.101Z,1015.86
2018-05-07T05:18:28.108Z,1015.85
2018-05-07T05:19:28.113Z,1015.89
2018-05-07T05:20:28.115Z,1015.83
2018-05-07T05:21:28.147Z,1015.82
2018-05-07T05:22:28.123Z,1015.86
2018-05-07T05:23:28.118Z,1015.84
2018-05-07T05:24:28.132Z,1015.89
2018-05-07T05:25:28.131Z,1015.83
2018-05-07T05:26:28.132Z,1015.88
2018-05-07T05:27:28.139Z,1015.84
2018-05-07T05:28:28.143Z,1015.85
2018-05-07T05:29:28.145Z,1015.84
2018-05-07T05:30:28.158Z,1015.89
2018-05-07T05:31:28.143Z,1015.85
2018-05-07T05:32:28.149Z,1016.37
2018-05-07T05:33:28.156Z,1016.97
2018-05-07T05:34:28.162Z,1017.30
2018-05-07T05:35:28.157Z,1017.26
2018-05-07T05:36:28.163Z,1017.25
2018-05-07T05:37:28.171Z,1017.31
2018-05-07T05:38:28.169Z,1017.39
2018-05-07T05:39:28.191Z,1017.38
2018-05-07T05:40:28.183Z,1017.41
2018-05-07T05:41:28.192Z,1017.45
2018-05-07T05:42:28.200Z,1017.45
2018-05-07T05:43:28.304Z,1017.46
2018-05-07T05:44:28.212Z,1017.49
2018-05-07T05:45:28.220Z,1017.50
2018-05-07T05:46:28.225Z,1017.44
2018-05-07T05:47:28.241Z,1017.44
2018-05-07T05:48:28.240Z,1017.47
2018-05-07T05:49:28.250Z,1017.48
2018-05-07T05:50:28.260Z,1017.46
2018-05-07T05:51:28.265Z,1017.51
2018-05-07T05:52:28.275Z,1017.49
2018-05-07T05:53:28.285Z,1017.46
2018-05-07T05:54:28.296Z,1017.41
2018-05-07T05:55:28.323Z,1017.39
2018-05-07T05:56:28.392Z,1017.41
2018-05-07T05:57:28.331Z,1017.43
2018-05-07T05:58:28.344Z,1017.40
2018-05-07T05:59:28.359Z,1017.46
2018-05-07T06:00:28.368Z,1017.53
2018-05-07T06:01:28.420Z,1017.47
2018-05-07T06:02:28.391Z,1017.42
2018-05-07T06:03:28.413Z,1017.49
2018-05-07T06:04:28.426Z,1017.51
2018-05-07T06:05:28.425Z,1017.56
2018-05-07T06:06:28.443Z,1017.58
2018-05-07T06:07:28.456Z,1017.61
2018-05-07T06:08:28.470Z,1017.69
2018-05-07T06:09:28.492Z,1017.73
2018-05-07T06:10:28.492Z,1017.68
2018-05-07T06:11:28.519Z,1017.75
2018-05-07T06:12:28.557Z,1017.74
2018-05-07T06:13:28.541Z,1017.73
2018-05-07T06:14:28.611Z,1017.69
2018-05-07T06:15:28.578Z,1017.73
2018-05-07T06:16:28.590Z,1017.70
2018-05-07T06:17:29.569Z,1017.73
2018-05-07T06:18:28.604Z,1017.71
2018-05-07T06:19:28.636Z,1017.67
2018-05-07T06:20:28.649Z,1017.68
2018-05-07T06:21:28.660Z,1017.76
2018-05-07T06:22:28.688Z,1017.67
2018-05-07T06:23:28.692Z,1017.69
2018-05-07T06:24:28.703Z,1017.65
2018-05-07T06:25:28.708Z,1017.62
2018-05-07T06:26:28.738Z,1017.60
2018-05-07T06:27:28.746Z,1017.62
2018-05-07T06:28:28.788Z,1017.60
2018-05-07T06:29:28.800Z,1017.55
2018-05-07T06:30:28.798Z,1017.54
2018-05-07T06:31:28.814Z,1017.52
2018-05-07T06:32:28.823Z,1017.57
2018-05-07T06:33:28.849Z,1017.62
2018-05-07T06:34:28.955Z,1017.55
2018-05-07T06:35:28.892Z,1017.56
2018-05-07T06:36:28.889Z,1017.60
2018-05-07T06:37:28.918Z,1017.63
2018-05-07T06:38:28.927Z,1017.62
2018-05-07T06:39:28.958Z,1017.60
2018-05-07T06:40:28.976Z,1017.58
2018-05-07T06:41:28.978Z,1017.60
2018-05-07T06:42:28.987Z,1017.65
2018-05-07T06:43:29.019Z,1017.67
2018-05-07T06:44:29.033Z,1017.60
2018-05-07T06:45:29.042Z,1017.62
2018-05-07T06:46:29.064Z,1017.65
2018-05-07T06:47:29.110Z,1017.70
2018-05-07T06:48:29.094Z,1017.64
2018-05-07T06:49:29.126Z,1017.66
2018-05-07T06:50:29.134Z,1017.64
2018-05-07T06:51:29.181Z,1017.62
2018-05-07T06:52:29.163Z,1017.65
2018-05-07T06:53:29.195Z,1017.68
2018-05-07T06:54:29.243Z,1017.70
2018-05-07T06:55:29.226Z,1017.72
2018-05-07T06:56:29.248Z,1017.72
2018-05-07T06:57:29.265Z,1017.81
2018-05-07T06:58:29.291Z,1017.81
2018-05-07T06:59:29.305Z,1017.87
2018-05-07T07:00:29.319Z,1017.86
2018-05-07T07:01:29.328Z,1017.92
2018-05-07T07:02:29.831Z,1017.94
2018-05-07T07:03:29.368Z,1017.97
2018-05-07T07:04:29.401Z,1017.91
2018-05-07T07:05:29.410Z,1017.92
2018-05-07T07:06:29.421Z,1017.94
2018-05-07T07:07:29.498Z,1017.94
2018-05-07T07:08:29.621Z,1017.97
2018-05-07T07:09:29.494Z,1017.97
2018-05-07T07:10:29.499Z,1017.89
2018-05-07T07:11:29.521Z,1017.97
2018-05-07T07:12:29.536Z,1017.99
2018-05-07T07:13:29.555Z,1018.00
2018-05-07T07:14:29.573Z,1017.94
2018-05-07T07:15:29.608Z,1017.90
2018-05-07T07:16:29.657Z,1017.97
2018-05-07T07:17:29.637Z,1017.89
2018-05-07T07:18:29.657Z,1017.93
2018-05-07T07:19:29.682Z,1017.88
2018-05-07T07:20:29.689Z,1017.84
2018-05-07T07:21:29.717Z,1017.82
2018-05-07T07:22:29.726Z,1017.82
2018-05-07T07:23:29.757Z,1017.82
2018-05-07T07:24:29.775Z,1017.74
2018-05-07T07:25:29.789Z,1017.66
2018-05-07T07:26:29.806Z,1017.64
2018-05-07T07:27:29.834Z,1017.62
2018-05-07T07:28:29.852Z,1017.58
2018-05-07T07:29:29.864Z,1017.51
2018-05-07T07:30:29.888Z,1017.46
2018-05-07T07:31:29.904Z,1017.47
2018-05-07T07:32:29.924Z,1017.46
2018-05-07T07:33:29.952Z,1017.41
2018-05-07T07:34:29.969Z,1017.36
2018-05-07T07:35:30.005Z,1017.33
2018-05-07T07:36:30.008Z,1017.33
2018-05-07T07:37:30.029Z,1017.31
2018-05-07T07:38:30.050Z,1017.27
2018-05-07T07:39:30.134Z,1017.27
2018-05-07T07:40:30.104Z,1017.29
2018-05-07T07:41:30.108Z,1017.26
2018-05-07T07:42:30.135Z,1017.29
2018-05-07T07:43:30.148Z,1017.26
2018-05-07T07:44:30.168Z,1017.20
2018-05-07T07:45:30.191Z,1017.14
2018-05-07T07:46:30.208Z,1017.14
2018-05-07T07:47:30.241Z,1017.10
2018-05-07T07:48:30.252Z,1017.10
2018-05-07T07:49:30.264Z,1017.08
2018-05-07T07:50:30.329Z,1017.03
2018-05-07T07:51:30.314Z,1017.00
2018-05-07T07:52:30.408Z,1016.95
2018-05-07T07:53:30.393Z,1016.91
2018-05-07T07:54:30.365Z,1016.96
2018-05-07T07:55:30.391Z,1016.91
2018-05-07T07:56:30.412Z,1016.93
2018-05-07T07:57:30.433Z,1016.84
2018-05-07T07:58:30.479Z,1016.81
2018-05-07T07:59:30.477Z,1016.82
2018-05-07T08:00:30.499Z,1016.83
2018-05-07T08:01:30.511Z,1016.89
2018-05-07T08:02:30.535Z,1016.99
2018-05-07T08:03:30.555Z,1016.95
2018-05-07T08:04:30.577Z,1016.98
2018-05-07T08:05:30.597Z,1016.98
2018-05-07T08:06:30.629Z,1016.99
2018-05-07T08:07:30.635Z,1017.00
2018-05-07T08:08:30.663Z,1016.99
2018-05-07T08:09:30.675Z,1016.99
2018-05-07T08:10:30.712Z,1017.14
2018-05-07T08:11:30.724Z,1017.08
2018-05-07T08:12:30.746Z,1017.07
2018-05-07T08:13:30.758Z,1017.07
2018-05-07T08:14:30.780Z,1017.09
2018-05-07T08:15:30.810Z,1017.14
2018-05-07T08:16:30.826Z,1017.10
2018-05-07T08:17:31.702Z,1017.09
2018-05-07T08:18:30.992Z,1017.13
2018-05-07T08:19:30.884Z,1017.19
2018-05-07T08:20:30.919Z,1017.11
2018-05-07T08:21:30.921Z,1017.08
2018-05-07T08:22:30.947Z,1017.06
2018-05-07T08:23:30.969Z,1017.08
2018-05-07T08:24:30.992Z,1017.07
2018-05-07T08:25:31.012Z,1017.06
2018-05-07T08:26:31.092Z,1017.02
2018-05-07T08:27:31.058Z,1016.98
2018-05-07T08:28:31.074Z,1017.05
2018-05-07T08:29:31.090Z,1017.00
2018-05-07T08:30:31.162Z,1017.00
2018-05-07T08:31:31.139Z,1017.05
2018-05-07T08:32:31.164Z,1017.00
2018-05-07T08:33:31.194Z,1017.00
2018-05-07T08:34:31.196Z,1016.98
2018-05-07T08:35:31.231Z,1016.98
2018-05-07T08:36:31.299Z,1016.93
2018-05-07T08:37:31.265Z,1016.97
2018-05-07T08:38:31.294Z,1016.94
2018-05-07T08:39:31.313Z,1016.96
2018-05-07T08:40:31.446Z,1016.94
2018-05-07T08:41:31.363Z,1016.95
2018-05-07T08:42:31.467Z,1016.95
2018-05-07T08:43:31.385Z,1016.94
2018-05-07T08:44:31.408Z,1016.84
2018-05-07T08:45:31.437Z,1016.98
2018-05-07T08:46:31.450Z,1016.84
2018-05-07T08:47:31.597Z,1016.83
2018-05-07T08:48:31.492Z,1016.89
2018-05-07T08:49:31.517Z,1016.88
2018-05-07T08:50:31.542Z,1016.86
2018-05-07T08:51:31.559Z,1016.79
2018-05-07T08:52:31.582Z,1016.78
2018-05-07T08:53:32.566Z,1016.81
2018-05-07T08:54:31.623Z,1016.90
2018-05-07T08:55:31.662Z,1016.95
2018-05-07T08:56:31.696Z,1016.94
2018-05-07T08:57:31.687Z,1016.86
2018-05-07T08:58:31.710Z,1016.77
2018-05-07T08:59:31.730Z,1016.70
2018-05-07T09:00:31.747Z,1016.74
2018-05-07T09:01:31.778Z,1016.69
2018-05-07T09:02:31.796Z,1016.67
2018-05-07T09:03:31.813Z,1016.69
2018-05-07T09:04:32.666Z,1016.66
2018-05-07T09:05:31.853Z,1016.58
2018-05-07T09:06:31.874Z,1016.61
2018-05-07T09:07:31.901Z,1016.60
2018-05-07T09:08:31.913Z,1016.54
2018-05-07T09:09:31.937Z,1016.66
2018-05-07T09:10:31.956Z,1016.63
2018-05-07T09:11:31.971Z,1016.66
2018-05-07T09:12:32.002Z,1016.63
2018-05-07T09:13:32.047Z,1016.61
2018-05-07T09:14:32.036Z,1016.59
2018-05-07T09:15:32.054Z,1016.60
2018-05-07T09:16:32.087Z,1016.50
2018-05-07T09:17:32.091Z,1016.53
2018-05-07T09:18:32.126Z,1016.52
2018-05-07T09:19:32.135Z,1016.52
2018-05-07T09:20:32.292Z,1016.62
2018-05-07T09:21:32.191Z,1016.68
2018-05-07T09:22:32.201Z,1016.66
2018-05-07T09:23:32.220Z,1016.62
2018-05-07T09:24:32.249Z,1016.68
2018-05-07T09:25:32.315Z,1016.63
2018-05-07T09:26:32.287Z,1016.61
2018-05-07T09:27:32.347Z,1016.62
2018-05-07T09:28:32.343Z,1016.62
2018-05-07T09:29:32.356Z,1016.65
2018-05-07T09:30:32.359Z,1016.66
2018-05-07T09:31:32.453Z,1016.49
2018-05-07T09:32:32.400Z,1016.48
2018-05-07T09:33:32.437Z,1016.51
2018-05-07T09:34:32.451Z,1016.50
2018-05-07T09:35:32.489Z,1016.37
2018-05-07T09:36:32.495Z,1016.19
2018-05-07T09:37:32.510Z,1016.13
2018-05-07T09:38:32.544Z,1015.89
2018-05-07T09:39:32.546Z,1015.74
2018-05-07T09:40:32.566Z,1015.61
2018-05-07T09:41:32.594Z,1015.54
2018-05-07T09:42:32.631Z,1015.62
2018-05-07T09:43:32.632Z,1015.62
2018-05-07T09:44:32.655Z,1015.59
2018-05-07T09:45:32.676Z,1015.51
2018-05-07T09:46:32.694Z,1015.47
2018-05-07T09:47:32.712Z,1015.41
2018-05-07T09:48:32.745Z,1015.42
2018-05-07T09:49:32.761Z,1015.41
2018-05-07T09:50:32.790Z,1015.43
2018-05-07T09:51:32.796Z,1015.44
2018-05-07T09:52:32.819Z,1015.42
2018-05-07T09:53:32.834Z,1015.44
2018-05-07T09:54:32.861Z,1015.43
2018-05-07T09:55:32.898Z,1015.30
2018-05-07T09:56:32.924Z,1015.40
2018-05-07T09:57:32.932Z,1015.35
2018-05-07T09:58:32.951Z,1015.37
2018-05-07T09:59:32.969Z,1015.37
2018-05-07T10:00:32.987Z,1015.34
2018-05-07T10:01:33.005Z,1015.33
2018-05-07T10:02:33.099Z,1015.29
2018-05-07T10:03:33.048Z,1015.27
2018-05-07T10:04:33.072Z,1015.25
2018-05-07T10:05:33.079Z,1015.26
2018-05-07T10:06:33.106Z,1015.15
2018-05-07T10:07:33.122Z,1015.22
2018-05-07T10:08:33.142Z,1015.18
2018-05-07T10:09:33.165Z,1015.24
2018-05-07T10:10:33.189Z,1015.14
2018-05-07T10:11:33.206Z,1015.17
2018-05-07T10:12:33.252Z,1015.16
2018-05-07T10:13:33.252Z,1015.15
2018-05-07T10:14:33.277Z,1015.17
2018-05-07T10:15:33.285Z,1015.06
2018-05-07T10:16:33.330Z,1015.13
2018-05-07T10:17:33.339Z,1015.06
2018-05-07T10:18:33.360Z,1015.03
2018-05-07T10:19:33.404Z,1014.97
2018-05-07T10:20:33.429Z,1014.91
2018-05-07T10:21:33.427Z,1014.96
2018-05-07T10:22:33.445Z,1014.92
2018-05-07T10:23:33.513Z,1014.89
2018-05-07T10:24:33.481Z,1014.89
2018-05-07T10:25:33.494Z,1014.89
2018-05-07T10:26:33.514Z,1014.84
2018-05-07T10:27:33.533Z,1014.90
2018-05-07T10:28:33.556Z,1014.81
2018-05-07T10:29:33.581Z,1014.83
2018-05-07T10:30:33.595Z,1014.80
2018-05-07T10:31:33.610Z,1014.77
2018-05-07T10:32:33.634Z,1014.80
2018-05-07T10:33:33.648Z,1014.79
2018-05-07T10:34:33.677Z,1014.81
2018-05-07T10:35:33.700Z,1014.74
2018-05-07T10:36:33.724Z,1014.73
2018-05-07T10:37:33.730Z,1014.79
2018-05-07T10:38:33.754Z,1014.81
2018-05-07T10:39:33.769Z,1014.78
2018-05-07T10:40:33.791Z,1014.78
2018-05-07T10:41:33.811Z,1014.75
2018-05-07T10:42:33.827Z,1014.77
2018-05-07T10:43:33.852Z,1014.85
2018-05-07T10:44:33.877Z,1014.73
2018-05-07T10:45:34.017Z,1014.73
2018-05-07T10:46:33.909Z,1014.71
2018-05-07T10:47:33.923Z,1014.71
2018-05-07T10:48:33.937Z,1014.73
2018-05-07T10:49:33.960Z,1014.72
2018-05-07T10:50:33.978Z,1014.66
2018-05-07T10:51:34.000Z,1014.73
2018-05-07T10:52:34.030Z,1014.72
2018-05-07T10:53:34.041Z,1014.73
2018-05-07T10:54:34.049Z,1014.73
2018-05-07T10:55:34.071Z,1014.67
2018-05-07T10:56:34.092Z,1014.64
2018-05-07T10:57:34.105Z,1014.64
2018-05-07T10:58:34.126Z,1014.69
2018-05-07T10:59:34.143Z,1014.64
2018-05-07T11:00:34.160Z,1014.67
2018-05-07T11:01:34.235Z,1014.57
2018-05-07T11:02:34.197Z,1014.57
2018-05-07T11:03:34.227Z,1014.57
2018-05-07T11:04:34.239Z,1014.57
2018-05-07T11:05:34.256Z,1014.53
2018-05-07T11:06:34.273Z,1014.56
2018-05-07T11:07:34.293Z,1014.53
2018-05-07T11:08:34.317Z,1014.51
2018-05-07T11:09:34.328Z,1014.48
2018-05-07T11:10:34.358Z,1014.54
2018-05-07T11:11:34.365Z,1014.54
2018-05-07T11:12:34.383Z,1014.45
2018-05-07T11:13:34.412Z,1014.47
2018-05-07T11:14:34.414Z,1014.39
2018-05-07T11:15:34.441Z,1014.45
2018-05-07T11:16:34.452Z,1014.43
2018-05-07T11:17:34.477Z,1014.40
2018-05-07T11:18:34.492Z,1014.35
2018-05-07T11:19:34.503Z,1014.35
2018-05-07T11:20:34.529Z,1014.36
2018-05-07T11:21:34.542Z,1014.35
2018-05-07T11:22:34.557Z,1014.36
2018-05-07T11:23:34.642Z,1014.30
2018-05-07T11:24:34.595Z,1014.35
2018-05-07T11:25:34.615Z,1014.29
2018-05-07T11:26:34.623Z,1014.36
2018-05-07T11:27:34.645Z,1014.33
2018-05-07T11:28:34.682Z,1014.32
2018-05-07T11:29:34.701Z,1014.27
2018-05-07T11:30:34.713Z,1014.28
2018-05-07T11:31:34.729Z,1014.32
2018-05-07T11:32:34.725Z,1014.25
2018-05-07T11:33:34.750Z,1014.32
2018-05-07T11:34:34.768Z,1014.33
2018-05-07T11:35:34.783Z,1014.30
2018-05-07T11:36:34.916Z,1014.26
2018-05-07T11:37:34.823Z,1014.22
2018-05-07T11:38:34.846Z,1014.20
2018-05-07T11:39:34.864Z,1014.20
2018-05-07T11:40:34.870Z,1014.23
2018-05-07T11:41:34.880Z,1014.20
2018-05-07T11:42:34.891Z,1014.20
2018-05-07T11:43:34.916Z,1014.24
2018-05-07T11:44:34.919Z,1014.17
2018-05-07T11:45:34.942Z,1014.17
2018-05-07T11:46:35.122Z,1014.21
2018-05-07T11:47:35.007Z,1014.22
2018-05-07T11:48:34.992Z,1014.20
2018-05-07T11:49:34.993Z,1014.17
2018-05-07T11:50:35.024Z,1014.16
2018-05-07T11:51:35.032Z,1014.23
2018-05-07T11:52:35.059Z,1014.16
2018-05-07T11:53:35.073Z,1014.15
2018-05-07T11:54:35.071Z,1014.13
2018-05-07T11:55:35.096Z,1014.11
2018-05-07T11:56:35.105Z,1014.12
2018-05-07T11:57:35.114Z,1014.10
2018-05-07T11:58:35.126Z,1014.03
2018-05-07T11:59:35.155Z,1013.98
2018-05-07T12:00:35.170Z,1014.00
2018-05-07T12:01:35.175Z,1013.97
2018-05-07T12:02:35.198Z,1013.96
2018-05-07T12:03:35.202Z,1013.88
2018-05-07T12:04:35.220Z,1013.95
2018-05-07T12:05:35.221Z,1013.88